Time;durP1;ratioP1;P1;durP2;ratioP2;P2;SDS_P1;SDS_P2;PMS_P1;PMS_P2;Temp;Humidity;BMP_temperature;BMP_pressure;BME280_temperature;BME280_humidity;BME280_pressure;Samples;Min_cycle;Max_cycle;Signal;HPM_P1;HPM_P2
2023/02/24 00:02:14;;;;;;;2.08;1.90;;;;;;;7.96;75.44;99236.47;5115736;28;20081;-65
2023/02/24 00:04:42;;;;;;;2.47;2.15;;;;;;;7.95;75.32;99234.75;5115116;28;20040;-65
2023/02/24 00:07:12;;;;;;;0.98;0.90;;;;;;;7.96;75.55;99227.16;5115383;28;20123;-65
2023/02/24 00:09:43;;;;;;;;;;;;;;;7.96;76.13;99227.16;5115633;28;20063;-65
2023/02/24 00:12:15;;;;;;;2.17;1.25;;;;;;;7.96;75.46;99232.25;5115508;28;20002;-65
2023/02/24 00:14:45;;;;;;;1.90;1.67;;;;;;;7.93;76.10;99228.81;5114841;28;20134;-65
2023/02/24 00:17:14;;;;;;;1.33;1.23;;;;;;;7.98;75.52;99222.91;5114795;28;20044;-65
2023/02/24 00:19:45;;;;;;;1.03;1.03;;;;;;;8.06;75.36;99223.75;5114908;28;20114;-65
2023/02/24 00:22:14;;;;;;;3.10;1.48;;;;;;;8.12;74.50;99220.41;5114882;28;20039;-65
2023/02/24 00:24:42;;;;;;;0.60;0.60;;;;;;;8.24;73.99;99222.09;5114682;27;20043;-65
2023/02/24 00:27:13;;;;;;;1.20;1.15;;;;;;;8.30;73.65;99207.72;5114493;28;20130;-65
2023/02/24 00:29:41;;;;;;;1.80;0.85;;;;;;;8.40;73.20;99206.03;5114676;28;20052;-65
2023/02/24 00:32:13;;;;;;;1.03;0.87;;;;;;;8.55;73.08;99195.88;5113443;28;20042;-65
2023/02/24 00:34:43;;;;;;;1.88;1.67;;;;;;;8.57;72.44;99194.16;5114880;28;20047;-65
2023/02/24 00:37:13;;;;;;;1.30;1.20;;;;;;;8.62;71.38;99198.41;5113245;28;20043;-65
2023/02/24 00:39:45;;;;;;;12.85;1.02;;;;;;;8.69;71.08;99196.69;5113881;28;20047;-65
2023/02/24 00:42:16;;;;;;;2.60;2.40;;;;;;;8.69;70.67;99196.69;5114451;28;20058;-66
2023/02/24 00:44:47;;;;;;;8.75;2.20;;;;;;;8.74;71.15;99200.09;5114371;28;20271;-65
2023/02/24 00:47:17;;;;;;;0.80;0.80;;;;;;;8.71;71.37;99190.75;5113453;28;20059;-65
2023/02/24 00:49:47;;;;;;;1.27;1.13;;;;;;;8.71;71.03;99192.44;5114449;28;20044;-65
2023/02/24 00:52:18;;;;;;;1.15;1.05;;;;;;;8.67;71.63;99183.13;5114300;28;20503;-65
2023/02/24 00:54:49;;;;;;;0.60;0.60;;;;;;;8.72;71.48;99191.63;5114504;28;20445;-65
2023/02/24 00:57:20;;;;;;;0.88;0.88;;;;;;;8.70;70.66;99188.22;5113014;28;20040;-65
2023/02/24 00:59:51;;;;;;;0.90;0.85;;;;;;;8.76;70.71;99185.66;5114389;28;20100;-65
2023/02/24 01:02:20;;;;;;;3.35;1.75;;;;;;;8.76;70.38;99180.56;5114427;28;20040;-65
2023/02/24 01:04:49;;;;;;;0.60;0.60;;;;;;;8.73;70.48;99178.06;5114547;28;20118;-66
2023/02/24 01:07:18;;;;;;;2.25;1.52;;;;;;;8.69;70.76;99176.34;5114082;28;20047;-65
2023/02/24 01:09:50;;;;;;;0.43;0.43;;;;;;;8.69;70.29;99178.88;5112897;28;20036;-66
2023/02/24 01:15:03;;;;;;;0.80;0.80;;;;;;;8.65;71.80;99174.66;5101227;28;20046;-66
2023/02/24 01:17:35;;;;;;;1.30;1.20;;;;;;;8.59;71.78;99169.59;5112705;28;20092;-65
2023/02/24 01:20:15;;;;;;;0.80;0.80;;;;;;;8.56;72.35;99159.44;5112794;28;20055;-66
2023/02/24 01:22:47;;;;;;;0.45;0.45;;;;;;;8.45;74.00;99156.03;5112867;28;20042;-66
2023/02/24 01:25:18;;;;;;;1.27;1.17;;;;;;;8.36;73.87;99161.13;5112719;28;20048;-65
2023/02/24 01:27:49;;;;;;;1.00;0.98;;;;;;;8.30;74.73;99156.06;5113307;28;20401;-66
2023/02/24 01:30:20;;;;;;;1.13;1.02;;;;;;;8.30;74.82;99150.97;5114151;28;20467;-66
2023/02/24 01:32:49;;;;;;;1.60;1.50;;;;;;;8.31;75.26;99147.56;5112721;28;20067;-65
2023/02/24 01:35:19;;;;;;;1.40;1.23;;;;;;;8.25;75.74;99152.63;5113854;28;20040;-65
2023/02/24 01:37:48;;;;;;;;;;;;;;;8.19;76.32;99147.53;5114626;28;20055;-65
2023/02/24 01:40:19;;;;;;;2.40;1.65;;;;;;;8.13;77.55;99142.47;5116476;28;19919;-65
2023/02/24 01:42:51;;;;;;;2.60;2.30;;;;;;;8.10;77.44;99139.06;5117893;27;20067;-66
2023/02/24 01:45:27;;;;;;;4.53;2.33;;;;;;;8.07;78.37;99133.13;5116671;28;20054;-66
2023/02/24 01:48:01;;;;;;;12.90;3.47;;;;;;;8.02;78.80;99135.69;5117878;28;20074;-67
2023/02/24 01:50:31;;;;;;;4.13;3.72;;;;;;;8.00;78.59;99134.84;5116569;28;20099;-65
2023/02/24 01:53:03;;;;;;;4.47;3.45;;;;;;;7.95;78.94;99128.91;5117669;28;20505;-66
2023/02/24 01:55:36;;;;;;;5.85;3.30;;;;;;;7.95;79.15;99128.03;5116705;28;20424;-66
2023/02/24 01:58:11;;;;;;;4.57;2.10;;;;;;;7.87;80.14;99117.88;5116564;28;20043;-67
2023/02/24 02:00:46;;;;;;;2.20;2.00;;;;;;;7.85;79.90;99114.47;5117553;28;20047;-66
2023/02/24 02:03:25;;;;;;;1.00;0.90;;;;;;;7.88;80.12;99119.56;5118153;28;20462;-66
2023/02/24 02:05:59;;;;;;;1.70;1.42;;;;;;;7.89;80.64;99112.81;5117733;28;20489;-66
2023/02/24 02:08:29;;;;;;;2.03;1.83;;;;;;;7.85;80.26;99111.94;5117383;28;20096;-67
2023/02/24 02:11:03;;;;;;;9.07;2.60;;;;;;;7.86;80.14;99103.50;5116238;28;20090;-67
2023/02/24 02:13:39;;;;;;;0.82;0.80;;;;;;;7.85;81.21;99101.78;5117426;28;20055;-66
2023/02/24 02:16:33;;;;;;;2.45;1.77;;;;;;;7.83;81.33;99098.41;5117308;28;20082;-67
2023/02/24 02:19:29;;;;;;;2.42;1.58;;;;;;;7.82;81.36;99091.63;5113621;28;20082;-66
2023/02/24 02:22:17;;;;;;;3.15;2.28;;;;;;;7.80;81.84;99088.22;5117159;28;20082;-66
2023/02/24 02:24:53;;;;;;;2.50;2.03;;;;;;;7.82;82.42;99085.72;5117182;28;20054;-66
2023/02/24 02:27:41;;;;;;;3.88;2.08;;;;;;;7.83;82.46;99087.38;5115871;28;20300;-68
2023/02/24 02:30:31;;;;;;;8.73;3.38;;;;;;;7.78;82.64;99079.75;5116955;28;20059;-68
2023/02/24 02:33:26;;;;;;;2.10;1.80;;;;;;;7.71;82.29;99083.16;5116059;28;20397;-67
2023/02/24 02:36:05;;;;;;;0.98;0.98;;;;;;;7.69;83.32;99072.16;5116338;28;20047;-67
2023/02/24 02:38:41;;;;;;;2.28;2.08;;;;;;;7.67;82.89;99068.78;5115689;28;20038;-67
2023/02/24 02:41:17;;;;;;;1.50;1.35;;;;;;;7.68;83.53;99072.97;5117115;28;20040;-68
2023/02/24 02:43:53;;;;;;;0.88;0.82;;;;;;;7.71;83.31;99064.53;5116786;28;20051;-67
2023/02/24 02:46:34;;;;;;;1.65;1.33;;;;;;;7.68;83.63;99067.91;5116915;28;20044;-67
2023/02/24 02:49:11;;;;;;;1.98;1.65;;;;;;;7.65;83.39;99062.84;5116596;28;20048;-66
2023/02/24 02:51:50;;;;;;;2.22;1.20;;;;;;;7.65;84.30;99065.38;5116062;28;20051;-68
2023/02/24 02:54:27;;;;;;;3.53;2.57;;;;;;;7.63;84.23;99067.03;5116913;28;20047;-67
2023/02/24 02:57:02;;;;;;;2.40;2.20;;;;;;;7.64;84.55;99063.69;5116802;28;20159;-66
2023/02/24 02:59:37;;;;;;;1.23;0.90;;;;;;;7.63;84.40;99054.34;5116266;28;20044;-66
2023/02/24 03:02:13;;;;;;;1.17;1.08;;;;;;;7.61;83.89;99045.88;5116439;28;20591;-67
2023/02/24 03:04:50;;;;;;;1.83;1.73;;;;;;;7.62;83.87;99047.59;5116307;28;20092;-66
2023/02/24 03:07:29;;;;;;;1.27;1.13;;;;;;;7.63;83.92;99054.34;5116604;28;20400;-68
2023/02/24 03:10:09;;;;;;;3.88;1.42;;;;;;;7.59;84.52;99044.19;5115287;28;20398;-67
2023/02/24 03:12:41;;;;;;;0.52;0.52;;;;;;;7.54;84.18;99046.72;5116840;28;20134;-66
2023/02/24 03:15:13;;;;;;;1.63;1.52;;;;;;;7.54;85.01;99044.19;5116180;28;20058;-67
2023/02/24 03:17:46;;;;;;;2.20;2.00;;;;;;;7.53;84.50;99041.66;5116116;28;20043;-66
2023/02/24 03:20:22;;;;;;;2.30;2.13;;;;;;;7.40;85.39;99020.50;5115738;28;20043;-69
2023/02/24 03:23:00;;;;;;;1.45;1.35;;;;;;;7.52;84.75;99040.81;5114835;28;20112;-66
2023/02/24 03:25:38;;;;;;;1.73;1.60;;;;;;;7.50;85.65;99034.88;5114763;28;20092;-68
2023/02/24 03:28:16;;;;;;;4.07;2.83;;;;;;;7.47;85.05;99022.19;5115905;28;20047;-67
2023/02/24 03:30:54;;;;;;;1.25;1.15;;;;;;;7.43;85.05;99025.56;5114602;28;20550;-68
2023/02/24 03:33:31;;;;;;;1.92;1.77;;;;;;;7.46;85.58;99035.75;5115777;28;20051;-68
2023/02/24 03:36:00;;;;;;;2.88;2.22;;;;;;;7.48;85.98;99034.06;5116587;28;20039;-68
2023/02/24 03:38:35;;;;;;;2.85;2.55;;;;;;;7.46;86.24;99034.88;5115599;28;20051;-68
2023/02/24 03:41:09;;;;;;;3.60;1.75;;;;;;;7.44;86.23;99032.31;5114629;28;20067;-68
2023/02/24 03:43:45;;;;;;;1.73;1.63;;;;;;;7.43;86.16;99031.50;5116416;28;20104;-68
2023/02/24 03:46:15;;;;;;;1.10;1.05;;;;;;;7.46;85.87;99025.59;5114837;28;20509;-68
2023/02/24 03:48:54;;;;;;;0.85;0.70;;;;;;;7.47;85.72;99029.81;5115434;28;20051;-69
2023/02/24 03:51:23;;;;;;;1.40;1.30;;;;;;;7.47;86.43;99027.25;5114416;28;20069;-69
2023/02/24 03:54:08;;;;;;;2.45;1.25;;;;;;;7.49;86.41;99024.72;5115700;28;20401;-67
2023/02/24 03:56:56;;;;;;;2.08;1.88;;;;;;;7.46;86.05;99020.50;5114146;28;20059;-67
2023/02/24 03:59:41;;;;;;;1.08;1.00;;;;;;;7.48;85.44;99017.97;5115495;28;20453;-67
2023/02/24 04:02:19;;;;;;;1.33;1.23;;;;;;;7.43;86.45;99016.28;5113321;28;20043;-68
2023/02/24 04:04:58;;;;;;;4.05;2.17;;;;;;;7.44;86.21;99007.78;5115682;28;20516;-69
2023/02/24 04:07:43;;;;;;;3.53;2.10;;;;;;;7.47;86.44;99009.50;5115463;28;20051;-68
2023/02/24 04:10:22;;;;;;;1.92;1.65;;;;;;;7.47;85.86;99006.94;5113857;28;20481;-68
2023/02/24 04:13:00;;;;;;;1.58;1.38;;;;;;;7.44;85.92;99004.41;5113758;28;20044;-67
2023/02/24 04:15:36;;;;;;;1.50;1.40;;;;;;;7.42;86.27;99004.41;5114972;28;20055;-67
2023/02/24 04:18:13;;;;;;;2.28;1.90;;;;;;;7.43;86.25;99002.72;5113755;28;20044;-67
2023/02/24 04:20:48;;;;;;;3.33;1.88;;;;;;;7.43;85.50;98990.03;5115007;28;20473;-67
2023/02/24 04:23:21;;;;;;;0.77;0.75;;;;;;;7.44;85.77;98997.66;5113581;28;20047;-67
2023/02/24 04:25:55;;;;;;;1.30;1.20;;;;;;;7.42;86.20;98994.25;5113582;28;20065;-68
2023/02/24 04:28:27;;;;;;;1.45;1.25;;;;;;;7.42;85.76;98988.34;5114742;28;20058;-67
2023/02/24 04:31:05;;;;;;;2.15;1.95;;;;;;;7.41;86.21;98981.59;5113505;28;20055;-68
2023/02/24 04:33:37;;;;;;;2.08;1.90;;;;;;;7.43;86.31;98979.88;5114815;28;20100;-68
2023/02/24 04:36:07;;;;;;;1.35;1.02;;;;;;;7.42;86.64;98978.19;5114847;28;20048;-68
2023/02/24 04:38:40;;;;;;;1.58;1.48;;;;;;;7.44;86.51;98971.41;5114906;28;20130;-70
2023/02/24 04:41:11;;;;;;;1.23;1.13;;;;;;;7.44;86.14;98971.41;5113276;28;20508;-68
2023/02/24 04:43:40;;;;;;;1.48;1.33;;;;;;;7.43;86.26;98969.72;5114422;28;20113;-69
2023/02/24 04:46:09;;;;;;;2.67;1.52;;;;;;;7.41;85.64;98972.25;5114481;28;20063;-69
2023/02/24 04:48:38;;;;;;;2.45;2.25;;;;;;;7.40;86.12;98970.56;5114337;28;20043;-69
2023/02/24 04:51:07;;;;;;;2.03;1.90;;;;;;;7.40;85.62;98969.72;5114308;28;20130;-68
2023/02/24 04:53:36;;;;;;;2.63;2.10;;;;;;;7.38;86.41;98959.56;5114148;28;20058;-68
2023/02/24 04:56:07;;;;;;;1.35;1.25;;;;;;;7.31;86.25;98954.50;5114225;28;20329;-69
2023/02/24 04:58:40;;;;;;;2.03;1.90;;;;;;;7.38;86.52;98962.13;5114565;28;20044;-68
2023/02/24 05:01:11;;;;;;;4.05;2.75;;;;;;;7.37;86.92;98954.47;5114470;28;20039;-67
2023/02/24 05:03:42;;;;;;;2.08;1.77;;;;;;;7.36;86.44;98957.88;5114442;28;20062;-68
2023/02/24 05:06:15;;;;;;;4.40;1.85;;;;;;;7.37;86.47;98954.47;5114528;28;20101;-68
2023/02/24 05:08:45;;;;;;;3.88;3.47;;;;;;;7.36;86.65;98962.97;5114424;28;20047;-68
2023/02/24 05:11:17;;;;;;;8.30;2.55;;;;;;;7.34;86.66;98954.50;5114353;28;20435;-68
2023/02/24 05:13:47;;;;;;;2.15;1.95;;;;;;;7.35;86.81;98953.63;5113741;28;20044;-68
2023/02/24 05:16:19;;;;;;;1.67;1.30;;;;;;;7.34;86.80;98946.88;5114339;28;20405;-68
2023/02/24 05:18:48;;;;;;;2.95;2.22;;;;;;;7.37;86.26;98949.41;5113991;28;20053;-68
2023/02/24 05:24:05;;;;;;;1.88;1.35;;;;;;;7.38;86.83;98946.88;5113856;28;20050;-68
2023/02/24 05:26:37;;;;;;;1.02;0.98;;;;;;;7.39;86.16;98947.72;5113814;28;20048;-67
2023/02/24 05:29:08;;;;;;;2.08;1.98;;;;;;;7.40;86.04;98935.03;5113807;28;20048;-67
2023/02/24 05:31:37;;;;;;;3.70;3.28;;;;;;;7.36;86.71;98942.66;5114284;28;20378;-68
2023/02/24 05:34:08;;;;;;;1.05;0.75;;;;;;;7.37;86.54;98939.25;5113972;28;20044;-69
2023/02/24 05:36:39;;;;;;;2.35;2.15;;;;;;;7.38;86.83;98943.50;5113842;28;20054;-67
2023/02/24 05:39:11;;;;;;;3.55;2.15;;;;;;;7.38;86.48;98946.03;5114394;28;20043;-68
2023/02/24 05:41:42;;;;;;;1.75;1.65;;;;;;;7.32;86.43;98940.94;5113719;28;20040;-69
2023/02/24 05:44:15;;;;;;;1.63;1.45;;;;;;;7.37;86.85;98954.47;5113844;28;20043;-68
2023/02/24 05:46:46;;;;;;;4.15;2.60;;;;;;;7.37;86.05;98949.41;5113651;28;20124;-68
2023/02/24 05:49:21;;;;;;;2.55;2.35;;;;;;;7.41;85.97;98940.97;5113692;28;20082;-69
2023/02/24 05:51:54;;;;;;;4.63;1.67;;;;;;;7.42;86.43;98937.56;5113933;28;20067;-68
2023/02/24 05:54:28;;;;;;;2.28;1.95;;;;;;;7.45;85.84;98932.50;5113679;28;20066;-68
2023/02/24 05:57:00;;;;;;;0.75;0.70;;;;;;;7.47;86.45;98930.78;5113940;28;20150;-67
2023/02/24 05:59:33;;;;;;;2.45;1.92;;;;;;;7.45;86.11;98937.56;5113980;28;20043;-70
2023/02/24 06:02:05;;;;;;;1.85;1.75;;;;;;;7.43;86.08;98934.19;5113534;28;20048;-69
2023/02/24 06:04:39;;;;;;;2.22;1.67;;;;;;;7.46;86.10;98940.97;5113533;28;20079;-67
2023/02/24 06:07:17;;;;;;;4.32;1.50;;;;;;;7.46;85.93;98934.19;5114059;28;20438;-68
2023/02/24 06:09:48;;;;;;;1.73;1.63;;;;;;;7.42;86.30;98929.94;5113639;28;20047;-67
2023/02/24 06:12:18;;;;;;;2.25;2.05;;;;;;;7.44;86.57;98926.56;5113513;28;20035;-68
2023/02/24 06:14:48;;;;;;;2.80;2.58;;;;;;;7.40;86.17;98921.50;5113716;28;20048;-70
2023/02/24 06:17:18;;;;;;;9.07;4.10;;;;;;;7.39;86.59;98918.09;5113500;28;20122;-69
2023/02/24 06:19:49;;;;;;;2.22;2.08;;;;;;;7.41;86.20;98910.50;5113770;28;20458;-67
2023/02/24 06:22:19;;;;;;;2.40;2.20;;;;;;;7.44;87.09;98915.56;5113464;28;20052;-69
2023/02/24 06:24:48;;;;;;;1.33;1.13;;;;;;;7.46;86.12;98918.13;5113442;28;20089;-67
2023/02/24 06:27:20;;;;;;;3.20;2.80;;;;;;;7.44;86.67;98911.34;5117270;28;20366;-68
2023/02/24 06:29:53;;;;;;;2.60;2.10;;;;;;;7.44;86.50;98905.41;5117052;28;20043;-68
2023/02/24 06:32:25;;;;;;;1.25;1.15;;;;;;;7.44;87.18;98905.41;5116948;28;20055;-67
2023/02/24 06:34:56;;;;;;;0.93;0.88;;;;;;;7.46;86.74;98898.66;5116921;28;20134;-68
2023/02/24 06:37:25;;;;;;;4.40;1.65;;;;;;;7.46;87.25;98903.75;5116845;28;20039;-68
2023/02/24 06:39:53;;;;;;;1.10;0.90;;;;;;;7.50;87.44;98912.19;5116733;28;20043;-68
2023/02/24 06:42:22;;;;;;;0.87;0.87;;;;;;;7.55;86.93;98918.94;5116797;28;20039;-68
2023/02/24 06:44:53;;;;;;;1.40;1.30;;;;;;;7.60;87.29;98929.97;5116979;28;20109;-67
2023/02/24 06:47:22;;;;;;;2.17;1.98;;;;;;;7.62;87.47;98929.94;5116637;28;20047;-69
2023/02/24 06:49:51;;;;;;;2.83;2.50;;;;;;;7.61;87.48;98926.56;5116827;28;20043;-67
2023/02/24 06:52:19;;;;;;;4.13;3.77;;;;;;;7.55;87.14;98924.03;5116848;28;20054;-69
2023/02/24 06:54:51;;;;;;;2.25;1.92;;;;;;;7.54;87.32;98912.16;5116531;28;20047;-69
2023/02/24 06:57:22;;;;;;;3.17;2.45;;;;;;;7.55;87.58;98913.88;5116784;28;20074;-67
2023/02/24 06:59:54;;;;;;;8.82;4.00;;;;;;;7.56;87.61;98914.72;5116477;28;20052;-68
2023/02/24 07:02:28;;;;;;;4.32;2.70;;;;;;;7.58;87.53;98911.34;5116427;28;20050;-67
2023/02/24 07:04:57;;;;;;;3.15;2.83;;;;;;;7.65;87.83;98920.63;5116312;28;20048;-68
2023/02/24 07:07:27;;;;;;;2.88;2.67;;;;;;;7.68;87.94;98918.06;5116239;28;20123;-69
2023/02/24 07:09:56;;;;;;;2.72;2.53;;;;;;;7.70;87.88;98918.91;5116262;28;20047;-67
2023/02/24 07:12:25;;;;;;;3.55;3.30;;;;;;;7.69;87.47;98912.16;5116414;28;20520;-69
2023/02/24 07:14:56;;;;;;;5.07;2.07;;;;;;;7.69;86.97;98907.09;5116107;28;20130;-68
2023/02/24 07:17:25;;;;;;;3.03;2.00;;;;;;;7.73;87.30;98908.75;5116122;28;20056;-68
2023/02/24 07:19:54;;;;;;;2.67;1.95;;;;;;;7.76;87.41;98913.84;5116035;28;20115;-68
2023/02/24 07:22:23;;;;;;;3.75;2.20;;;;;;;7.78;88.05;98912.13;5115692;28;20131;-68
2023/02/24 07:24:59;;;;;;;1.63;1.52;;;;;;;7.79;87.32;98908.75;5116038;28;20097;-67
2023/02/24 07:27:28;;;;;;;3.03;1.90;;;;;;;7.79;87.66;98907.91;5115841;28;20131;-67
2023/02/24 07:29:59;;;;;;;3.72;2.60;;;;;;;7.83;87.28;98904.50;5116170;28;20448;-66
2023/02/24 07:32:29;;;;;;;2.42;1.90;;;;;;;7.86;87.65;98905.34;5115777;28;20036;-69
2023/02/24 07:34:58;;;;;;;5.68;2.13;;;;;;;7.89;87.17;98894.34;5115691;28;20047;-69
2023/02/24 07:37:30;;;;;;;7.10;3.45;;;;;;;7.94;87.89;98893.47;5115599;28;20067;-66
2023/02/24 07:40:00;;;;;;;1.55;1.45;;;;;;;7.97;87.05;98896.00;5115592;28;20044;-68
2023/02/24 07:42:34;;;;;;;4.38;3.88;;;;;;;8.01;87.08;98895.13;5115528;28;20047;-68
2023/02/24 07:45:09;;;;;;;5.95;3.55;;;;;;;8.00;87.09;98888.38;5115657;28;20097;-68
2023/02/24 07:47:39;;;;;;;3.33;2.97;;;;;;;8.07;87.03;98884.09;5116041;28;20366;-68
2023/02/24 07:50:13;;;;;;;9.07;3.33;;;;;;;8.06;87.03;98878.16;5115439;28;20544;-67
2023/02/24 07:52:42;;;;;;;2.90;2.40;;;;;;;8.13;86.27;98883.25;5115445;27;20044;-69
2023/02/24 07:55:11;;;;;;;2.05;1.85;;;;;;;8.22;86.13;98880.66;5115353;28;20039;-67
2023/02/24 07:57:45;;;;;;;3.08;2.88;;;;;;;8.31;86.28;98880.66;5115524;27;20073;-67
2023/02/24 08:00:18;;;;;;;4.53;4.10;;;;;;;8.42;87.01;98876.38;5115344;28;20408;-68
2023/02/24 08:02:48;;;;;;;11.30;5.07;;;;;;;8.45;86.47;98876.34;5115320;28;20043;-68
2023/02/24 08:05:18;;;;;;;2.35;2.10;;;;;;;8.45;86.19;98871.25;5114977;28;20082;-68
2023/02/24 08:07:48;;;;;;;1.92;1.80;;;;;;;8.42;86.08;98866.19;5115726;28;20081;-67
2023/02/24 08:10:24;;;;;;;2.20;2.00;;;;;;;8.42;85.61;98861.94;5115253;28;20085;-67
2023/02/24 08:12:54;;;;;;;2.15;1.98;;;;;;;8.44;85.36;98864.50;5115309;28;20493;-67
2023/02/24 08:15:32;;;;;;;6.80;2.25;;;;;;;8.48;84.63;98858.53;5115173;28;20078;-68
2023/02/24 08:18:02;;;;;;;2.40;1.73;;;;;;;8.48;85.35;98850.91;5115253;28;20076;-68
2023/02/24 08:20:50;;;;;;;2.42;2.05;;;;;;;8.51;85.04;98848.34;5114592;28;20043;-67
2023/02/24 08:23:22;;;;;;;1.50;1.27;;;;;;;8.50;84.75;98834.78;5114677;27;20044;-67
2023/02/24 08:25:52;;;;;;;1.58;1.48;;;;;;;8.57;84.79;98840.66;5115095;28;20122;-68
2023/02/24 08:28:25;;;;;;;1.83;1.70;;;;;;;8.67;84.21;98840.59;5115381;28;20554;-67
2023/02/24 08:30:56;;;;;;;4.57;2.00;;;;;;;8.77;83.77;98838.84;5114990;28;20055;-67
2023/02/24 08:33:28;;;;;;;4.55;2.83;;;;;;;8.82;83.70;98837.13;5114453;28;20138;-67
2023/02/24 08:36:00;;;;;;;1.13;1.05;;;;;;;8.83;83.23;98838.78;5114563;28;20051;-68
2023/02/24 08:41:16;;;;;;;2.13;1.92;;;;;;;8.97;82.80;98829.38;5114330;28;20051;-68
2023/02/24 08:43:48;;;;;;;4.55;2.42;;;;;;;8.99;82.51;98830.19;5114414;28;20076;-67
2023/02/24 08:46:24;;;;;;;4.35;3.13;;;;;;;9.04;82.79;98832.69;5114496;28;20036;-68
2023/02/24 08:48:56;;;;;;;2.22;2.03;;;;;;;9.05;82.06;98835.22;5113290;28;20048;-67
2023/02/24 08:51:27;;;;;;;1.42;1.33;;;;;;;9.01;81.19;98835.25;5114266;28;20080;-67
2023/02/24 08:53:58;;;;;;;2.75;2.55;;;;;;;8.93;80.88;98831.91;5114258;28;20523;-67
2023/02/24 08:56:29;;;;;;;1.70;1.60;;;;;;;8.89;80.73;98818.41;5114450;28;20081;-66
2023/02/24 08:59:04;;;;;;;2.70;1.90;;;;;;;8.90;79.89;98825.16;5114428;28;20070;-66
2023/02/24 09:01:38;;;;;;;2.78;2.47;;;;;;;8.87;80.42;98824.34;5114981;28;20481;-67
2023/02/24 09:04:10;;;;;;;1.42;1.33;;;;;;;8.92;80.26;98832.78;5114161;28;20070;-66
2023/02/24 09:06:43;;;;;;;1.17;1.10;;;;;;;8.98;79.98;98828.50;5114366;28;20396;-68
2023/02/24 09:09:19;;;;;;;4.47;1.60;;;;;;;9.03;80.13;98826.75;5114092;28;20044;-69
2023/02/24 09:11:54;;;;;;;1.75;1.65;;;;;;;9.08;79.79;98832.66;5114084;28;20043;-68
2023/02/24 09:14:26;;;;;;;1.38;1.27;;;;;;;9.12;79.96;98826.66;5114064;28;20047;-68
2023/02/24 09:17:02;;;;;;;2.17;1.98;;;;;;;9.17;80.28;98832.56;5113941;28;20118;-69
2023/02/24 09:20:22;;;;;;;3.33;2.33;;;;;;;9.21;79.79;98831.69;5113986;28;20051;-68
2023/02/24 09:22:31;;;;;;;1.48;1.38;;;;;;;9.15;79.78;98831.75;5113494;28;20090;-68
2023/02/24 09:27:42;;;;;;;3.10;2.80;;;;;;;9.12;79.29;98836.00;5114106;28;20126;-69
2023/02/24 09:30:34;;;;;;;5.82;2.13;;;;;;;9.09;79.58;98831.81;5112008;28;20054;-68
2023/02/24 09:33:16;;;;;;;4.20;3.08;;;;;;;9.02;79.75;98819.97;5113971;28;20062;-68
2023/02/24 09:35:47;;;;;;;1.75;1.45;;;;;;;8.98;79.73;98808.13;5113977;28;20420;-67
2023/02/24 09:38:18;;;;;;;5.30;3.42;;;;;;;8.93;80.04;98803.94;5113938;28;20124;-68
2023/02/24 09:40:49;;;;;;;2.40;2.20;;;;;;;8.84;80.01;98792.16;5113766;28;20097;-66
2023/02/24 09:43:24;;;;;;;3.42;2.58;;;;;;;8.75;80.14;98774.41;5113674;28;20046;-67
2023/02/24 09:46:00;;;;;;;1.30;0.82;;;;;;;8.78;80.58;98774.41;5113772;28;20036;-68
2023/02/24 09:48:43;;;;;;;4.38;3.03;;;;;;;8.85;82.02;98770.09;5114276;28;20488;-68
2023/02/24 09:51:21;;;;;;;3.75;1.27;;;;;;;8.94;82.12;98773.41;5113641;28;20397;-69
2023/02/24 09:53:55;;;;;;;3.88;2.25;;;;;;;9.04;81.53;98767.38;5113980;28;20038;-67
2023/02/24 09:56:35;;;;;;;3.67;3.28;;;;;;;9.14;81.86;98779.13;5113591;28;20100;-68
2023/02/24 09:59:13;;;;;;;2.65;2.30;;;;;;;9.26;82.07;98773.94;5113537;28;20039;-67
2023/02/24 10:01:51;;;;;;;4.10;2.08;;;;;;;9.38;81.75;98773.81;5116762;28;20051;-69
2023/02/24 10:04:34;;;;;;;2.50;2.28;;;;;;;9.47;81.90;98767.78;5117624;27;20101;-69
2023/02/24 10:07:07;;;;;;;2.58;2.38;;;;;;;9.55;81.00;98771.06;5117713;28;20393;-68
2023/02/24 10:09:39;;;;;;;2.08;1.88;;;;;;;9.61;80.88;98770.16;5117635;28;20055;-67
2023/02/24 10:12:17;;;;;;;1.95;1.67;;;;;;;9.67;80.28;98770.09;5117334;28;20047;-68
2023/02/24 10:14:52;;;;;;;3.70;2.38;;;;;;;9.68;79.59;98759.03;5117587;28;20039;-68
2023/02/24 10:17:38;;;;;;;4.63;2.25;;;;;;;9.68;79.29;98759.03;5117638;28;20116;-67
2023/02/24 10:20:22;;;;;;;;;;;;;;;9.67;78.64;98749.72;5117760;28;20046;-68
2023/02/24 10:22:58;;;;;;;2.83;2.05;;;;;;;9.70;78.20;98747.13;5117381;28;19920;-68
2023/02/24 10:25:40;;;;;;;6.57;4.50;;;;;;;9.70;77.81;98739.47;5117086;28;20044;-67
2023/02/24 10:28:24;;;;;;;3.92;2.50;;;;;;;9.66;77.19;98725.09;5117316;27;20089;-67
2023/02/24 10:31:08;;;;;;;2.97;1.65;;;;;;;9.72;77.50;98727.56;5117401;27;20040;-67
2023/02/24 10:33:44;;;;;;;4.13;2.15;;;;;;;9.68;76.98;98721.66;5116902;28;20071;-67
2023/02/24 10:36:18;;;;;;;1.30;1.17;;;;;;;9.66;76.82;98723.41;5117186;28;20047;-67
2023/02/24 10:38:49;;;;;;;3.05;2.35;;;;;;;9.65;76.84;98715.75;5117158;28;20459;-67
2023/02/24 10:41:18;;;;;;;3.60;2.70;;;;;;;9.67;77.06;98708.97;5117047;28;20401;-67
2023/02/24 10:43:54;;;;;;;2.70;2.45;;;;;;;9.69;77.33;98712.34;5116610;28;20122;-69
2023/02/24 10:46:32;;;;;;;5.32;4.10;;;;;;;9.72;77.07;98717.38;5116683;28;20052;-68
2023/02/24 10:49:15;;;;;;;2.97;1.83;;;;;;;9.72;76.97;98707.19;5116666;28;20040;-67
2023/02/24 10:51:53;;;;;;;3.97;3.08;;;;;;;9.73;77.50;98717.38;5116612;28;20072;-68
2023/02/24 10:57:14;;;;;;;2.35;2.10;;;;;;;9.81;77.67;98701.97;5116864;28;20056;-67
2023/02/24 10:59:57;;;;;;;1.85;1.75;;;;;;;9.86;78.10;98690.03;5116393;28;20044;-67
2023/02/24 11:02:31;;;;;;;1.95;1.58;;;;;;;9.88;77.54;98678.94;5116678;28;20097;-68
2023/02/24 11:05:25;;;;;;;3.15;2.88;;;;;;;9.98;77.84;98677.09;5116302;28;20043;-67
2023/02/24 11:08:14;;;;;;;3.78;2.88;;;;;;;10.08;77.10;98671.84;5116575;28;20401;-68
2023/02/24 11:10:57;;;;;;;3.10;2.40;;;;;;;10.14;76.26;98668.41;5116168;28;20044;-68
2023/02/24 11:18:50;;;;;;;2.90;2.30;;;;;;;10.44;75.95;98639.84;5116379;28;20405;-68
2023/02/24 11:21:19;;;;;;;2.92;2.65;;;;;;;10.54;76.10;98646.47;5115665;28;20101;-67
2023/02/24 11:23:51;;;;;;;;;;;;;;;10.54;75.63;98643.91;5116488;28;20055;-67
2023/02/24 11:26:25;;;;;;;6.13;1.92;;;;;;;10.50;75.24;98642.28;5116162;28;19943;-65
2023/02/24 11:29:09;;;;;;;0.98;0.98;;;;;;;10.48;75.36;98638.94;5115917;28;20040;-66
2023/02/24 11:31:55;;;;;;;6.55;3.75;;;;;;;10.44;75.70;98639.84;5116321;28;20047;-68
2023/02/24 11:34:32;;;;;;;3.15;2.85;;;;;;;10.44;75.84;98634.72;5115810;28;20503;-68
2023/02/24 11:37:14;;;;;;;8.45;4.70;;;;;;;10.42;76.25;98631.38;5116091;27;20047;-68
2023/02/24 11:39:53;;;;;;;3.20;2.58;;;;;;;10.41;76.29;98624.59;5115697;28;20043;-68
2023/02/24 11:42:26;;;;;;;7.28;2.03;;;;;;;10.39;76.20;98621.22;5116056;28;20093;-68
2023/02/24 11:45:03;;;;;;;3.22;2.90;;;;;;;10.37;76.11;98622.94;5115504;28;20057;-68
2023/02/24 11:47:39;;;;;;;4.65;3.97;;;;;;;10.34;75.99;98617.06;5115507;28;20040;-69
2023/02/24 11:50:30;;;;;;;4.97;3.83;;;;;;;10.31;75.94;98612.88;5115540;28;20050;-68
2023/02/24 11:53:05;;;;;;;2.97;2.67;;;;;;;10.33;76.90;98613.69;5114173;28;20044;-67
2023/02/24 11:55:41;;;;;;;3.40;2.33;;;;;;;10.32;76.67;98604.34;5115402;28;20100;-67
2023/02/24 11:58:17;;;;;;;3.05;2.25;;;;;;;10.31;77.31;98606.94;5115171;28;20054;-68
2023/02/24 12:00:54;;;;;;;3.13;2.47;;;;;;;10.29;77.40;98604.41;5115484;28;20383;-68
2023/02/24 12:03:31;;;;;;;2.13;1.92;;;;;;;10.26;76.88;98594.25;5115886;28;20059;-68
2023/02/24 12:06:11;;;;;;;3.40;2.72;;;;;;;10.21;77.28;98588.38;5115377;28;20048;-68
2023/02/24 12:08:44;;;;;;;0.90;0.90;;;;;;;10.21;77.75;98588.38;5115162;28;20047;-68
2023/02/24 12:11:22;;;;;;;1.60;1.50;;;;;;;10.18;77.51;98577.38;5115072;28;20039;-67
2023/02/24 12:14:03;;;;;;;1.90;1.67;;;;;;;10.23;77.72;98573.06;5115121;28;20031;-67
2023/02/24 12:16:39;;;;;;;7.05;3.28;;;;;;;10.25;77.59;98567.06;5114949;28;20040;-67
2023/02/24 12:19:18;;;;;;;1.65;1.52;;;;;;;10.30;77.55;98564.44;5114879;28;20057;-68
2023/02/24 12:21:53;;;;;;;6.07;4.13;;;;;;;10.35;77.01;98560.94;5114982;28;20047;-67
2023/02/24 12:24:23;;;;;;;3.20;2.90;;;;;;;10.38;77.30;98560.03;5113873;28;20439;-67
2023/02/24 12:27:05;;;;;;;2.97;2.67;;;;;;;10.28;77.16;98526.22;5114921;28;20440;-67
2023/02/24 12:29:53;;;;;;;5.38;3.38;;;;;;;10.49;76.86;98541.13;5114965;28;20039;-67
2023/02/24 12:32:31;;;;;;;1.83;1.65;;;;;;;10.59;76.77;98542.63;5114581;28;20051;-67
2023/02/24 12:35:11;;;;;;;3.67;2.45;;;;;;;10.68;76.55;98531.38;5114597;28;20048;-67